Time;durP1;ratioP1;P1;durP2;ratioP2;P2;SDS_P1;SDS_P2;PMS_P1;PMS_P2;Temp;Humidity;BMP_temperature;BMP_pressure;BME280_temperature;BME280_humidity;BME280_pressure;Samples;Min_cycle;Max_cycle;Signal;HPM_P1;HPM_P2
2022/08/12 00:42:53;;;;;;;3.88;1.42;;;19.50;83.50;;;;;;4958266;29;20140;-77
2022/08/12 00:45:19;;;;;;;3.63;1.52;;;19.50;84.00;;;;;;4941388;29;20027;-77
2022/08/12 00:47:45;;;;;;;4.55;1.30;;;19.30;84.50;;;;;;4958581;29;20035;-77
2022/08/12 00:50:18;;;;;;;5.18;1.55;;;19.30;85.10;;;;;;4957999;29;20431;-76
2022/08/12 00:52:49;;;;;;;5.93;1.70;;;19.30;85.30;;;;;;4959455;29;20413;-77
2022/08/12 00:55:17;;;;;;;2.28;1.40;;;19.30;85.50;;;;;;4959083;29;20062;-75
2022/08/12 00:57:46;;;;;;;3.72;1.33;;;19.20;86.10;;;;;;4957634;29;20020;-76
2022/08/12 01:00:31;;;;;;;4.53;1.70;;;19.10;86.70;;;;;;4956936;29;20027;-77
2022/08/12 01:03:00;;;;;;;2.95;1.40;;;19.10;87.30;;;;;;4957329;29;20039;-76
2022/08/12 01:13:47;;;;;;;3.05;1.42;;;18.60;90.20;;;;;;4957244;29;20024;-76
2022/08/12 01:16:16;;;;;;;3.03;1.50;;;18.90;90.30;;;;;;4940015;29;20027;-76
2022/08/12 01:18:44;;;;;;;2.15;1.33;;;18.90;90.20;;;;;;4956826;29;20102;-75
2022/08/12 01:21:31;;;;;;;2.90;1.40;;;18.90;90.10;;;;;;4957106;29;20074;-77
2022/08/12 01:24:21;;;;;;;3.72;1.33;;;18.90;90.00;;;;;;4956968;29;20150;-76
2022/08/12 01:26:50;;;;;;;1.92;1.23;;;18.80;90.40;;;;;;4939970;29;20031;-76
2022/08/12 01:29:21;;;;;;;2.38;1.60;;;18.70;90.50;;;;;;4955798;28;20466;-75
2022/08/12 01:31:50;;;;;;;3.10;1.20;;;18.70;90.80;;;;;;4958417;29;20102;-77
2022/08/12 01:34:23;;;;;;;4.10;1.33;;;18.90;90.70;;;;;;4956571;28;20417;-75
2022/08/12 01:36:57;;;;;;;5.10;1.40;;;18.90;90.50;;;;;;4958187;29;20023;-77
2022/08/12 01:39:29;;;;;;;2.85;1.40;;;19.00;90.50;;;;;;4940495;29;20039;-76
2022/08/12 01:42:01;;;;;;;2.85;1.15;;;19.10;90.60;;;;;;4958678;29;20034;-76
2022/08/12 01:44:28;;;;;;;3.17;1.48;;;19.00;90.60;;;;;;4957816;29;20047;-76
2022/08/12 01:47:02;;;;;;;8.18;1.98;;;18.90;91.00;;;;;;4959304;29;20027;-75
2022/08/12 01:50:01;;;;;;;3.28;1.30;;;18.70;91.10;;;;;;4941562;29;20061;-77
2022/08/12 01:52:39;;;;;;;3.72;1.50;;;18.60;91.60;;;;;;4954493;29;20095;-77
2022/08/12 01:55:06;;;;;;;2.03;1.40;;;18.60;91.80;;;;;;4958946;29;20141;-77
2022/08/12 01:57:43;;;;;;;1.55;1.42;;;18.60;92.20;;;;;;4957935;29;20024;-76
2022/08/12 02:00:12;;;;;;;4.53;1.20;;;18.60;92.40;;;;;;4958363;29;20499;-77
2022/08/12 02:02:59;;;;;;;2.00;1.27;;;18.50;92.80;;;;;;4957571;29;20087;-76
2022/08/12 02:11:28;;;;;;;4.90;1.48;;;18.10;94.10;;;;;;4956498;29;20523;-76
2022/08/12 02:14:18;;;;;;;1.90;1.40;;;18.00;94.60;;;;;;4939877;29;20030;-75
2022/08/12 02:17:04;;;;;;;6.15;1.35;;;18.00;95.10;;;;;;4957590;29;20031;-75
2022/08/12 02:20:20;;;;;;;3.90;1.52;;;18.00;95.40;;;;;;4958074;29;20205;-77
2022/08/12 02:22:47;;;;;;;3.17;1.50;;;17.90;95.90;;;;;;4936175;29;20043;-77
2022/08/12 02:25:15;;;;;;;3.05;1.40;;;18.00;96.10;;;;;;4957029;29;20448;-77
2022/08/12 02:27:53;;;;;;;2.60;1.10;;;18.10;96.30;;;;;;4941385;29;20027;-76
2022/08/12 02:30:22;;;;;;;3.85;1.58;;;18.00;96.40;;;;;;4961993;29;20027;-76
2022/08/12 02:32:50;;;;;;;1.70;1.35;;;18.00;96.70;;;;;;4958909;29;20019;-77
2022/08/12 02:35:22;;;;;;;1.98;1.27;;;18.10;96.90;;;;;;4957090;29;20399;-78
2022/08/12 02:37:51;;;;;;;2.05;1.50;;;18.10;97.30;;;;;;4958317;29;20036;-76
2022/08/12 02:40:18;;;;;;;1.73;1.10;;;17.90;97.40;;;;;;4957992;28;20086;-75
2022/08/12 02:43:26;;;;;;;3.50;1.60;;;18.00;97.80;;;;;;4956960;29;20031;-76
2022/08/12 02:46:02;;;;;;;1.50;1.30;;;17.90;97.70;;;;;;4955705;29;20046;-76
2022/08/12 02:48:45;;;;;;;4.40;1.63;;;17.80;97.60;;;;;;4955435;29;20027;-78
2022/08/12 02:51:15;;;;;;;3.03;1.42;;;17.70;98.40;;;;;;4955544;29;20031;-76
2022/08/12 02:53:43;;;;;;;3.00;1.48;;;17.50;99.10;;;;;;4955526;29;20034;-76
2022/08/12 02:56:11;;;;;;;8.93;1.80;;;17.40;99.60;;;;;;4938021;29;20122;-76
2022/08/12 02:58:38;;;;;;;2.22;1.30;;;17.30;99.90;;;;;;4954380;29;20039;-76
2022/08/12 03:01:09;;;;;;;4.20;1.42;;;17.10;99.90;;;;;;4937602;29;20031;-75
2022/08/12 03:03:36;;;;;;;1.67;1.27;;;17.10;99.90;;;;;;4954590;29;20035;-76
2022/08/12 03:06:13;;;;;;;4.22;1.80;;;17.10;99.90;;;;;;4954284;29;20034;-76
2022/08/12 03:08:42;;;;;;;5.05;1.58;;;17.10;99.90;;;;;;4953504;29;20046;-75
2022/08/12 03:11:35;;;;;;;4.05;1.65;;;17.00;99.90;;;;;;4937664;29;20380;-76
2022/08/12 03:14:02;;;;;;;2.13;1.30;;;17.00;99.90;;;;;;4954292;28;20439;-75
2022/08/12 03:16:31;;;;;;;2.22;1.45;;;17.00;99.90;;;;;;4955644;29;20027;-76
2022/08/12 03:18:58;;;;;;;6.85;1.90;;;16.90;99.90;;;;;;4953856;29;20023;-75
2022/08/12 03:21:24;;;;;;;4.47;1.83;;;17.00;99.90;;;;;;4954541;29;20023;-76
2022/08/12 03:23:53;;;;;;;2.58;1.48;;;17.00;99.90;;;;;;4955308;29;20027;-75
2022/08/12 03:26:24;;;;;;;3.28;1.50;;;17.10;99.90;;;;;;4956657;29;20038;-76
2022/08/12 03:28:55;;;;;;;5.43;1.55;;;17.30;99.90;;;;;;4955618;29;20035;-77
2022/08/12 03:31:33;;;;;;;2.17;1.50;;;17.30;99.90;;;;;;4954825;29;20035;-78
2022/08/12 03:34:02;;;;;;;4.15;1.60;;;17.20;99.90;;;;;;4938353;29;20665;-76
2022/08/12 03:36:33;;;;;;;2.20;1.73;;;17.10;99.90;;;;;;4955234;29;20501;-76
2022/08/12 03:41:58;;;;;;;2.60;1.70;;;17.00;99.90;;;;;;4937446;29;20127;-76
2022/08/12 04:01:39;;;;;;;3.70;1.60;;;16.50;99.90;;;;;;4961331;29;20039;-77
2022/08/12 04:04:08;;;;;;;1.75;1.60;;;16.50;99.90;;;;;;4960088;29;20033;-76
2022/08/12 04:06:41;;;;;;;4.22;1.75;;;16.60;99.90;;;;;;4960440;29;20066;-76
2022/08/12 04:09:08;;;;;;;3.15;1.50;;;16.60;99.90;;;;;;4959914;29;20035;-77
2022/08/12 04:14:24;;;;;;;4.00;1.50;;;16.70;99.90;;;;;;4962195;29;20036;-77
2022/08/12 04:16:50;;;;;;;7.20;1.70;;;16.70;99.90;;;;;;4963712;29;20705;-77
2022/08/12 04:19:18;;;;;;;2.33;1.63;;;16.80;99.90;;;;;;4962680;29;20046;-76
2022/08/12 04:21:44;;;;;;;3.13;1.70;;;16.80;99.90;;;;;;4960814;29;20074;-77
2022/08/12 04:24:10;;;;;;;3.33;1.50;;;16.80;99.90;;;;;;4947307;29;20035;-78
2022/08/12 04:26:38;;;;;;;3.28;1.70;;;16.90;99.90;;;;;;4962138;29;20215;-77
2022/08/12 04:29:06;;;;;;;2.88;1.50;;;16.90;99.90;;;;;;4952582;29;20093;-78
2022/08/12 04:31:34;;;;;;;3.85;1.70;;;17.00;99.90;;;;;;4960517;29;20037;-77
2022/08/12 04:34:01;;;;;;;3.85;1.70;;;17.00;99.90;;;;;;4960307;29;20054;-76
2022/08/12 04:36:29;;;;;;;4.00;1.60;;;17.10;99.90;;;;;;4925747;29;20024;-78
2022/08/12 04:38:55;;;;;;;2.95;1.90;;;17.20;99.90;;;;;;4958236;29;20031;-76
2022/08/12 04:41:23;;;;;;;5.22;1.80;;;17.30;99.90;;;;;;4958993;29;20027;-79
2022/08/12 04:43:50;;;;;;;2.50;1.50;;;17.50;99.90;;;;;;4942463;29;20035;-77
2022/08/12 04:46:16;;;;;;;5.78;2.17;;;17.60;99.90;;;;;;4957876;29;20110;-77
2022/08/12 04:48:43;;;;;;;5.57;1.83;;;17.70;99.90;;;;;;4957577;29;20090;-76
2022/08/12 04:51:09;;;;;;;2.55;1.63;;;18.00;99.90;;;;;;4941942;29;20041;-77
2022/08/12 04:53:35;;;;;;;2.67;1.52;;;18.20;99.90;;;;;;4942201;29;20035;-78
2022/08/12 04:56:00;;;;;;;3.15;1.83;;;18.50;99.90;;;;;;4960053;29;20027;-77
2022/08/12 04:58:27;;;;;;;2.85;1.65;;;18.70;99.90;;;;;;4961427;29;20027;-79
2022/08/12 05:00:53;;;;;;;2.65;1.70;;;18.80;99.90;;;;;;4959643;29;20029;-78
2022/08/12 05:03:19;;;;;;;4.20;1.73;;;19.00;99.90;;;;;;4942730;28;20099;-76
2022/08/12 05:05:45;;;;;;;3.67;1.98;;;19.10;99.90;;;;;;4958275;29;20083;-77
2022/08/12 05:08:16;;;;;;;4.55;1.83;;;19.20;99.90;;;;;;4957729;29;20039;-76
2022/08/12 05:10:44;;;;;;;4.90;1.48;;;19.40;99.90;;;;;;4959112;29;20023;-75
2022/08/12 05:13:13;;;;;;;3.17;1.63;;;19.40;99.90;;;;;;4960987;29;20032;-77
2022/08/12 05:15:41;;;;;;;5.60;1.85;;;19.50;99.90;;;;;;4959611;29;20071;-77
2022/08/12 05:18:07;;;;;;;6.95;1.98;;;19.50;99.90;;;;;;4945934;29;20031;-77
2022/08/12 05:20:33;;;;;;;7.32;2.50;;;19.50;99.90;;;;;;4964427;29;20098;-77
2022/08/12 05:23:07;;;;;;;11.65;1.90;;;19.60;99.90;;;;;;4958427;29;20098;-78
2022/08/12 05:25:33;;;;;;;6.22;1.60;;;19.80;99.90;;;;;;4958650;29;20122;-79
2022/08/12 05:27:59;;;;;;;2.08;1.60;;;20.00;99.50;;;;;;4959317;29;20502;-74
2022/08/12 05:30:29;;;;;;;7.65;2.60;;;20.20;99.00;;;;;;4940738;29;20039;-76
2022/08/12 05:32:56;;;;;;;8.15;2.10;;;20.30;98.80;;;;;;4941705;29;20062;-77
2022/08/12 05:35:22;;;;;;;12.25;1.95;;;20.50;98.30;;;;;;4958616;29;20069;-77
2022/08/12 05:38:54;;;;;;;8.75;2.45;;;20.40;98.20;;;;;;4958757;29;20030;-76
2022/08/12 05:40:37;;;;;;;10.18;2.25;;;20.30;98.50;;;;;;4959285;29;20472;-77
2022/08/12 05:43:05;;;;;;;4.32;1.90;;;20.40;98.30;;;;;;4959794;29;20023;-77
2022/08/12 05:45:31;;;;;;;3.33;1.60;;;20.40;98.00;;;;;;4961700;29;20031;-82
2022/08/12 05:47:56;;;;;;;7.68;1.80;;;20.50;97.90;;;;;;4942346;29;20147;-76
2022/08/12 05:50:23;;;;;;;12.75;2.47;;;20.50;97.90;;;;;;4960012;29;20023;-78
2022/08/12 05:52:48;;;;;;;11.93;2.92;;;20.40;98.00;;;;;;4945518;29;20031;-77
2022/08/12 05:55:15;;;;;;;15.25;6.43;;;20.30;98.40;;;;;;4969375;29;20082;-76
2022/08/12 05:57:47;;;;;;;9.50;4.35;;;20.10;99.00;;;;;;4953046;29;20023;-76
2022/08/12 06:00:15;;;;;;;6.72;3.08;;;20.10;98.80;;;;;;4942962;29;20043;-77
2022/08/12 06:02:41;;;;;;;8.63;2.53;;;20.10;98.80;;;;;;4961444;29;20055;-76
2022/08/12 06:05:09;;;;;;;6.75;2.75;;;20.10;98.70;;;;;;4957789;29;20027;-77
2022/08/12 06:07:45;;;;;;;5.55;2.08;;;20.20;98.70;;;;;;4959434;29;20110;-76
2022/08/12 06:10:11;;;;;;;3.55;2.00;;;20.10;98.50;;;;;;4960255;29;20043;-77
2022/08/12 06:12:36;;;;;;;8.95;2.72;;;20.10;98.50;;;;;;4962360;29;20031;-77
2022/08/12 06:15:04;;;;;;;5.72;2.10;;;20.10;98.80;;;;;;4962543;28;20023;-77
2022/08/12 06:17:29;;;;;;;8.88;3.08;;;20.10;98.80;;;;;;4960446;29;20506;-77
2022/08/12 06:19:57;;;;;;;6.38;2.28;;;20.20;98.80;;;;;;4958674;29;20031;-76
2022/08/12 06:22:24;;;;;;;4.03;2.35;;;20.40;98.50;;;;;;4942384;29;20030;-78
2022/08/12 06:24:52;;;;;;;4.25;2.38;;;20.60;98.50;;;;;;4957793;29;20058;-78
2022/08/12 06:27:20;;;;;;;6.32;2.75;;;20.80;98.10;;;;;;4940457;29;20023;-77
2022/08/12 06:29:46;;;;;;;4.80;2.05;;;20.90;98.10;;;;;;4957440;29;20098;-77
2022/08/12 06:32:14;;;;;;;8.35;2.45;;;21.10;97.50;;;;;;4959854;29;20030;-77
2022/08/12 06:34:40;;;;;;;4.88;2.28;;;21.20;97.40;;;;;;4959115;29;20118;-76
2022/08/12 06:37:06;;;;;;;5.38;2.33;;;21.40;97.10;;;;;;4943465;29;20062;-77
2022/08/12 06:39:32;;;;;;;5.70;2.10;;;21.50;96.80;;;;;;4960611;29;20019;-77
2022/08/12 06:44:42;;;;;;;4.03;2.13;;;21.80;96.20;;;;;;4956618;29;20042;-78
2022/08/12 06:47:08;;;;;;;8.07;2.33;;;21.80;96.00;;;;;;4960091;29;20031;-76
2022/08/12 06:49:35;;;;;;;5.07;2.50;;;21.80;95.80;;;;;;4958523;29;20488;-76
2022/08/12 06:52:03;;;;;;;4.70;1.90;;;21.90;95.70;;;;;;4939171;29;20031;-78
2022/08/12 06:54:29;;;;;;;5.47;2.30;;;22.00;95.50;;;;;;4956472;29;20027;-76
2022/08/12 06:56:56;;;;;;;3.90;2.25;;;22.20;95.10;;;;;;4956152;29;20391;-76
2022/08/12 06:59:22;;;;;;;7.15;2.03;;;22.30;94.70;;;;;;4955125;29;20096;-77
2022/08/12 07:01:48;;;;;;;5.20;2.10;;;22.30;94.70;;;;;;4956778;29;20031;-78
2022/08/12 07:04:14;;;;;;;6.65;2.22;;;22.30;94.60;;;;;;4938197;29;20130;-76
2022/08/12 07:06:40;;;;;;;4.50;2.45;;;22.40;94.50;;;;;;4941634;29;20027;-76
2022/08/12 07:09:06;;;;;;;6.63;2.17;;;22.30;94.40;;;;;;4958193;29;20039;-76
2022/08/12 07:11:32;;;;;;;10.32;2.45;;;22.30;94.30;;;;;;4959747;29;20106;-77
2022/08/12 07:14:03;;;;;;;5.13;2.35;;;22.30;94.20;;;;;;4960043;29;20027;-75
2022/08/12 07:16:50;;;;;;;6.55;2.53;;;22.20;94.10;;;;;;4940951;29;20031;-75
2022/08/12 07:19:15;;;;;;;6.32;2.35;;;22.20;94.30;;;;;;4957497;29;20031;-77
2022/08/12 07:21:41;;;;;;;6.63;2.67;;;22.10;94.30;;;;;;4938608;29;20096;-76
2022/08/12 07:24:07;;;;;;;4.68;2.15;;;22.10;94.60;;;;;;4958338;29;20117;-76
2022/08/12 07:26:36;;;;;;;5.82;2.22;;;22.10;94.50;;;;;;4959593;28;20061;-76
2022/08/12 07:29:03;;;;;;;9.63;2.58;;;21.90;94.40;;;;;;4959221;29;20046;-77
2022/08/12 07:31:30;;;;;;;5.07;2.33;;;21.80;94.70;;;;;;4961581;29;20019;-77
2022/08/12 07:33:55;;;;;;;6.20;2.10;;;21.60;94.60;;;;;;4959544;29;20038;-77
2022/08/12 07:36:21;;;;;;;6.18;2.60;;;21.60;94.80;;;;;;4959246;28;20027;-76
2022/08/12 07:38:50;;;;;;;10.45;5.22;;;21.60;95.00;;;;;;4961716;29;20020;-77
2022/08/12 07:41:29;;;;;;;7.13;2.60;;;21.50;95.30;;;;;;4958418;28;20031;-78
2022/08/12 07:44:01;;;;;;;3.60;2.05;;;21.50;95.40;;;;;;4947788;29;20034;-77
2022/08/12 07:46:30;;;;;;;10.68;2.30;;;21.50;95.40;;;;;;4956121;29;20443;-77
2022/08/12 07:49:02;;;;;;;5.07;2.20;;;21.50;95.30;;;;;;4955508;29;20479;-77
2022/08/12 07:51:28;;;;;;;5.07;2.05;;;21.40;95.40;;;;;;4939583;29;20035;-77
2022/08/12 07:53:56;;;;;;;2.95;1.73;;;21.50;95.50;;;;;;4960769;29;20031;-76
2022/08/12 07:56:23;;;;;;;6.32;2.00;;;21.70;95.20;;;;;;4959497;29;20031;-76
2022/08/12 07:58:48;;;;;;;5.78;2.25;;;21.90;95.10;;;;;;4941659;29;20055;-79
2022/08/12 08:01:18;;;;;;;4.07;2.20;;;22.00;95.00;;;;;;4939603;29;20031;-78
2022/08/12 08:06:33;;;;;;;4.95;2.00;;;22.20;94.50;;;;;;4959959;29;20031;-77
2022/08/12 08:09:01;;;;;;;6.15;2.25;;;22.30;94.50;;;;;;4941287;29;20039;-77
2022/08/12 08:14:12;;;;;;;3.53;2.05;;;22.50;94.00;;;;;;4958722;29;20047;-77
2022/08/12 08:16:39;;;;;;;2.55;1.73;;;22.60;93.90;;;;;;4956576;29;20046;-78
2022/08/12 08:19:18;;;;;;;6.72;2.88;;;22.60;93.50;;;;;;4955083;29;20027;-79
2022/08/12 08:21:44;;;;;;;5.85;2.13;;;22.70;93.50;;;;;;4938805;29;20484;-79
2022/08/12 08:24:16;;;;;;;2.50;1.77;;;22.70;92.80;;;;;;4939709;29;20131;-78
2022/08/12 08:26:50;;;;;;;3.53;2.15;;;22.70;92.60;;;;;;4957567;29;20499;-79
2022/08/12 08:29:17;;;;;;;2.92;1.90;;;22.80;92.90;;;;;;4938915;29;20039;-78
2022/08/12 08:31:45;;;;;;;4.35;1.88;;;22.90;92.10;;;;;;4956560;29;20023;-79
2022/08/12 08:34:13;;;;;;;4.10;1.85;;;22.90;91.20;;;;;;4965627;29;20027;-79
2022/08/12 08:36:40;;;;;;;6.72;1.80;;;23.00;90.80;;;;;;4964068;29;20038;-78
2022/08/12 08:39:12;;;;;;;3.80;2.15;;;23.10;90.80;;;;;;4963522;28;20031;-79
2022/08/12 08:44:23;;;;;;;5.03;1.60;;;23.20;91.30;;;;;;4963501;29;20483;-79
2022/08/12 08:46:49;;;;;;;4.63;1.95;;;23.30;90.50;;;;;;4966336;29;20035;-80
2022/08/12 08:49:16;;;;;;;7.13;1.60;;;23.10;90.70;;;;;;4960906;29;20086;-79
2022/08/12 08:51:44;;;;;;;6.43;2.03;;;23.10;90.90;;;;;;4945197;29;20031;-80
2022/08/12 08:54:11;;;;;;;8.30;1.77;;;23.10;91.10;;;;;;4952437;29;20051;-80
2022/08/12 08:56:44;;;;;;;5.00;1.75;;;23.20;90.30;;;;;;4965160;29;20438;-78
2022/08/12 08:59:12;;;;;;;2.47;1.50;;;23.10;89.00;;;;;;4967127;29;20031;-78
2022/08/12 09:01:39;;;;;;;3.78;1.50;;;23.10;89.60;;;;;;4964562;29;20046;-80
2022/08/12 09:04:09;;;;;;;7.60;2.00;;;23.10;89.00;;;;;;4960887;29;20055;-78
2022/08/12 09:06:35;;;;;;;7.57;1.75;;;22.90;88.50;;;;;;4943994;29;20042;-79
2022/08/12 09:09:04;;;;;;;4.47;2.13;;;22.90;90.00;;;;;;4964612;29;20032;-78
2022/08/12 09:14:16;;;;;;;2.65;1.77;;;23.20;89.20;;;;;;4962933;29;20033;-79
2022/08/12 09:16:42;;;;;;;7.93;2.10;;;23.30;89.60;;;;;;4961291;29;20030;-79
2022/08/12 09:19:09;;;;;;;7.57;1.77;;;23.50;89.00;;;;;;4965553;29;20028;-80
2022/08/12 09:21:36;;;;;;;6.97;1.80;;;23.40;88.80;;;;;;4947605;29;20031;-79
2022/08/12 09:24:02;;;;;;;5.93;2.25;;;23.40;88.70;;;;;;4967137;29;20114;-78
2022/08/12 09:26:28;;;;;;;2.42;1.65;;;23.50;87.20;;;;;;4968797;29;20027;-76
2022/08/12 09:28:55;;;;;;;5.03;2.17;;;23.50;87.30;;;;;;4970561;29;20027;-80
2022/08/12 09:31:21;;;;;;;4.53;1.80;;;23.70;86.50;;;;;;4940351;29;20059;-82
2022/08/12 09:33:49;;;;;;;6.22;2.20;;;24.20;85.40;;;;;;4939511;29;20069;-80
2022/08/12 09:36:16;;;;;;;3.53;1.90;;;24.20;84.50;;;;;;4964910;29;20023;-83
2022/08/12 09:38:43;;;;;;;4.80;2.10;;;24.60;84.50;;;;;;4963588;29;20028;-80
2022/08/12 09:41:10;;;;;;;7.68;2.08;;;25.80;81.60;;;;;;4934488;29;20031;-79
2022/08/12 09:46:20;;;;;;;2.17;1.40;;;27.50;76.10;;;;;;4965922;29;20487;-80
2022/08/12 09:48:46;;;;;;;3.38;1.58;;;28.20;73.30;;;;;;4960207;29;20067;-82
2022/08/12 09:51:12;;;;;;;6.00;1.58;;;28.50;71.70;;;;;;4950952;29;20035;-80
2022/08/12 09:53:39;;;;;;;5.57;1.92;;;29.10;69.20;;;;;;4970824;29;20020;-82
2022/08/12 09:56:07;;;;;;;4.07;1.70;;;29.80;67.90;;;;;;4960003;29;20113;-82
2022/08/12 09:58:36;;;;;;;2.33;1.40;;;30.30;65.60;;;;;;4960643;29;20058;-82
2022/08/12 10:01:05;;;;;;;3.80;1.58;;;30.80;65.40;;;;;;4961674;29;20028;-80
2022/08/12 10:03:33;;;;;;;2.58;1.40;;;31.40;63.40;;;;;;4932149;29;20051;-82
2022/08/12 10:06:01;;;;;;;4.50;1.40;;;32.10;61.90;;;;;;4944126;29;20480;-82
2022/08/12 10:08:31;;;;;;;3.13;1.65;;;33.10;60.30;;;;;;4949906;29;20035;-82
2022/08/12 10:13:45;;;;;;;3.92;1.63;;;33.80;57.30;;;;;;4960646;29;20031;-82
2022/08/12 10:16:22;;;;;;;6.32;1.85;;;34.30;56.40;;;;;;4942906;29;20046;-81
2022/08/12 10:18:53;;;;;;;4.28;1.70;;;34.50;55.20;;;;;;4944449;29;20042;-84
2022/08/12 10:21:23;;;;;;;2.60;1.63;;;35.00;54.60;;;;;;4943768;29;20035;-82
2022/08/12 10:23:51;;;;;;;5.35;1.75;;;35.60;53.70;;;;;;4961027;29;20408;-81
2022/08/12 10:31:50;;;;;;;3.85;2.65;;;37.10;50.20;;;;;;4961376;29;20038;-84
2022/08/12 10:34:17;;;;;;;4.78;1.55;;;37.50;50.40;;;;;;4942683;29;20487;-83
2022/08/12 10:36:43;;;;;;;4.65;1.95;;;38.80;49.10;;;;;;4961756;29;20031;-84
2022/08/12 10:39:12;;;;;;;8.10;1.48;;;39.60;47.80;;;;;;4942423;29;20051;-84
2022/08/12 10:44:23;;;;;;;6.75;1.70;;;38.10;46.70;;;;;;4964602;29;20035;-83
2022/08/12 10:46:51;;;;;;;2.72;1.50;;;38.10;47.00;;;;;;4964005;29;20078;-82
2022/08/12 10:49:18;;;;;;;5.63;1.65;;;38.80;46.10;;;;;;4960907;29;20062;-82
2022/08/12 10:51:47;;;;;;;4.35;2.10;;;38.60;45.40;;;;;;4959467;29;20289;-84
2022/08/12 10:54:15;;;;;;;4.10;1.30;;;38.60;46.00;;;;;;4958301;29;20035;-82
2022/08/12 10:56:44;;;;;;;3.78;1.50;;;39.20;45.40;;;;;;4958500;29;20023;-84
2022/08/12 10:59:10;;;;;;;3.28;1.50;;;40.80;44.30;;;;;;4931496;29;20087;-84
2022/08/12 11:01:36;;;;;;;3.22;1.67;;;42.30;42.60;;;;;;4961568;28;20432;-82
2022/08/12 11:04:04;;;;;;;2.78;1.67;;;41.80;42.30;;;;;;4961422;29;20041;-82
2022/08/12 11:06:29;;;;;;;4.60;1.30;;;41.20;42.20;;;;;;4949923;29;20031;-81
2022/08/12 11:08:55;;;;;;;2.00;1.20;;;41.20;42.30;;;;;;5096957;23;20621;-89
2022/08/12 11:11:23;;;;;;;8.50;1.30;;;41.40;41.80;;;;;;5006265;28;20029;-90
2022/08/12 11:13:53;;;;;;;2.53;1.38;;;41.70;41.20;;;;;;5009818;28;20105;-89
2022/08/12 11:16:19;;;;;;;2.40;1.13;;;42.00;41.10;;;;;;4993153;28;20097;-90
2022/08/12 11:18:48;;;;;;;1.60;1.33;;;41.50;41.20;;;;;;5007578;28;20037;-89
2022/08/12 11:21:14;;;;;;;4.53;1.55;;;41.60;40.80;;;;;;5010634;28;20064;-89
2022/08/12 11:23:43;;;;;;;5.38;1.38;;;41.60;40.50;;;;;;5003053;28;20080;-90
2022/08/12 11:26:25;;;;;;;;;;;;;;;;;;;;;
2022/08/12 11:29:03;;;;;;;2.38;1.45;;;41.60;40.40;;;;;;5036818;28;20060;-92
2022/08/12 11:31:29;;;;;;;2.03;1.30;;;41.60;40.70;;;;;;5003374;28;20034;-90
2022/08/12 11:33:55;;;;;;;2.55;1.20;;;40.80;40.70;;;;;;5018675;28;20033;-89
2022/08/12 11:36:21;;;;;;;3.85;1.25;;;41.20;41.20;;;;;;5013209;28;20057;-89
2022/08/12 11:38:50;;;;;;;4.90;1.50;;;41.50;40.60;;;;;;5028980;28;20038;-88
2022/08/12 11:41:19;;;;;;;3.42;1.30;;;41.90;40.10;;;;;;5013661;28;20030;-90
2022/08/12 11:43:45;;;;;;;2.47;1.20;;;41.00;39.90;;;;;;5015752;28;20010;-89
2022/08/12 11:46:12;;;;;;;5.13;1.10;;;40.00;40.50;;;;;;5020224;28;20065;-90
2022/08/12 11:48:41;;;;;;;1.98;1.20;;;39.90;40.60;;;;;;5019210;28;20030;-91
2022/08/12 11:51:07;;;;;;;2.42;1.20;;;41.60;40.00;;;;;;5017403;28;20042;-89
2022/08/12 11:53:36;;;;;;;4.63;1.05;;;41.90;38.60;;;;;;5018246;28;20029;-88
2022/08/12 11:56:06;;;;;;;3.65;1.20;;;42.80;38.30;;;;;;5004114;28;20049;-90
2022/08/12 11:58:33;;;;;;;5.88;1.40;;;43.20;38.20;;;;;;5020230;28;20030;-91
2022/08/12 12:00:59;;;;;;;2.78;0.98;;;42.00;38.80;;;;;;5208393;23;20039;-91
2022/08/12 12:03:26;;;;;;;2.20;1.02;;;41.00;39.40;;;;;;5115432;23;20043;-91
2022/08/12 12:05:53;;;;;;;2.58;1.35;;;41.30;39.30;;;;;;4994263;28;20051;-90
2022/08/12 12:08:23;;;;;;;1.85;1.08;;;40.40;38.90;;;;;;4950260;28;20015;-89
2022/08/12 12:10:51;;;;;;;3.10;1.08;;;39.60;39.80;;;;;;4977304;28;20043;-89
2022/08/12 12:13:21;;;;;;;4.25;1.20;;;40.00;39.70;;;;;;5100268;23;20120;-91
2022/08/12 12:15:47;;;;;;;1.08;0.93;;;40.70;39.20;;;;;;5003459;28;20118;-90
2022/08/12 12:18:25;;;;;;;2.00;1.10;;;41.50;38.50;;;;;;4965861;28;20098;-89
2022/08/12 12:20:57;;;;;;;2.13;0.90;;;42.50;38.10;;;;;;4979097;28;20027;-89
2022/08/12 12:23:23;;;;;;;2.17;1.10;;;43.90;37.20;;;;;;4943875;28;20105;-90
2022/08/12 12:25:49;;;;;;;2.22;1.00;;;43.70;37.50;;;;;;4974689;28;20121;-88
2022/08/12 12:28:16;;;;;;;2.05;1.13;;;42.30;38.00;;;;;;4991567;28;20027;-90
2022/08/12 12:30:42;;;;;;;5.88;1.20;;;42.70;37.90;;;;;;4957922;28;20034;-89
2022/08/12 12:33:10;;;;;;;1.13;1.02;;;43.60;37.40;;;;;;4960969;28;20093;-88
2022/08/12 12:35:37;;;;;;;1.23;1.13;;;43.20;37.50;;;;;;4963490;28;20018;-89
2022/08/12 12:38:10;;;;;;;3.63;2.55;;;42.90;37.30;;;;;;4981755;28;20015;-91
2022/08/12 12:40:39;;;;;;;11.43;6.75;;;42.50;37.10;;;;;;5041711;23;20122;-89
2022/08/12 12:43:06;;;;;;;10.52;6.68;;;41.90;37.60;;;;;;4988207;28;20017;-90
2022/08/12 12:45:38;;;;;;;4.80;2.42;;;42.90;37.40;;;;;;4993875;28;20117;-89
2022/08/12 12:53:44;;;;;;;1.67;1.00;;;43.50;36.60;;;;;;5039159;28;20181;-90
2022/08/12 12:56:20;;;;;;;1.58;0.93;;;43.00;36.80;;;;;;5020025;28;20044;-91
2022/08/12 13:01:37;;;;;;;4.93;1.30;;;42.80;37.20;;;;;;5190560;22;20036;-90
2022/08/12 13:04:06;;;;;;;1.35;0.90;;;43.20;36.80;;;;;;5020729;28;20014;-89
2022/08/12 13:06:33;;;;;;;2.15;1.00;;;44.10;36.40;;;;;;5021736;28;20022;-91
2022/08/12 13:09:01;;;;;;;3.40;1.02;;;45.40;35.90;;;;;;5043184;28;20017;-93
2022/08/12 13:11:28;;;;;;;1.45;0.90;;;46.00;35.50;;;;;;5043301;28;20061;-90
2022/08/12 13:13:56;;;;;;;1.38;1.00;;;46.50;35.20;;;;;;5043488;28;20067;-90
2022/08/12 13:16:25;;;;;;;2.45;1.10;;;45.80;34.70;;;;;;5026463;28;20022;-90
2022/08/12 13:18:52;;;;;;;1.27;1.10;;;45.60;35.20;;;;;;5042157;28;20065;-92
2022/08/12 13:21:19;;;;;;;2.35;1.10;;;45.30;35.50;;;;;;5025601;28;20022;-93
2022/08/12 13:23:46;;;;;;;2.53;1.17;;;45.00;35.40;;;;;;5042842;28;20021;-92
2022/08/12 13:26:16;;;;;;;3.70;1.40;;;45.50;35.60;;;;;;5190328;23;20035;-93
2022/08/12 13:28:52;;;;;;;2.95;1.27;;;45.90;35.30;;;;;;4980849;28;20132;-90
2022/08/12 13:31:23;;;;;;;2.70;1.15;;;44.60;35.50;;;;;;4980000;28;20039;-89
2022/08/12 13:33:52;;;;;;;2.53;1.38;;;43.80;35.80;;;;;;4964531;28;20039;-92
2022/08/12 13:36:19;;;;;;;3.13;1.20;;;43.90;35.90;;;;;;4964661;28;20011;-90
2022/08/12 13:41:34;;;;;;;6.63;1.40;;;43.60;36.30;;;;;;5106301;22;20054;-91
2022/08/12 13:44:03;;;;;;;1.85;1.00;;;43.80;36.50;;;;;;5006405;28;20056;-90
2022/08/12 13:46:29;;;;;;;3.50;1.33;;;43.60;35.80;;;;;;5006374;28;20034;-90
2022/08/12 13:48:55;;;;;;;1.67;1.23;;;43.50;35.80;;;;;;5039310;28;20057;-91
2022/08/12 13:51:23;;;;;;;1.23;1.10;;;42.00;36.50;;;;;;5237522;22;20019;-93
2022/08/12 13:53:49;;;;;;;1.05;0.95;;;42.40;36.50;;;;;;5006400;28;20045;-92
2022/08/12 13:58:58;;;;;;;3.35;1.05;;;42.70;36.30;;;;;;4697700;22;20041;-92
2022/08/12 14:01:24;;;;;;;2.17;1.20;;;43.50;35.90;;;;;;5006026;28;20045;-92
2022/08/12 14:03:52;;;;;;;2.95;1.00;;;43.90;35.70;;;;;;5005988;28;20010;-92
2022/08/12 14:06:20;;;;;;;6.18;1.42;;;43.70;35.60;;;;;;5022259;28;20013;-90
2022/08/12 14:08:50;;;;;;;3.65;1.02;;;42.70;36.10;;;;;;5005335;28;20045;-90
2022/08/12 14:11:17;;;;;;;1.55;0.98;;;42.00;36.30;;;;;;5021462;28;20057;-90
2022/08/12 14:13:43;;;;;;;2.97;1.40;;;42.00;36.50;;;;;;5005240;28;20021;-92
2022/08/12 14:16:16;;;;;;;2.45;1.10;;;41.20;36.90;;;;;;5005877;28;20018;-92
2022/08/12 14:18:43;;;;;;;2.85;1.27;;;40.20;37.30;;;;;;5021531;28;20029;-93
2022/08/12 14:21:14;;;;;;;3.50;1.42;;;39.90;37.40;;;;;;5093243;23;20050;-92
2022/08/12 14:23:51;;;;;;;5.25;1.35;;;39.90;37.60;;;;;;5002302;28;20033;-91
2022/08/12 14:26:23;;;;;;;2.55;1.30;;;40.00;37.40;;;;;;5018870;28;20030;-92
2022/08/12 14:28:51;;;;;;;1.77;1.08;;;39.70;37.90;;;;;;5017738;28;20038;-89
2022/08/12 14:31:17;;;;;;;2.10;1.30;;;39.30;37.80;;;;;;5001932;28;20129;-92
2022/08/12 14:33:50;;;;;;;7.20;1.10;;;38.10;38.30;;;;;;5018718;28;20037;-92
2022/08/12 14:36:21;;;;;;;1.90;1.00;;;37.00;38.70;;;;;;5001992;28;20039;-91
2022/08/12 14:38:48;;;;;;;3.15;1.20;;;35.80;39.60;;;;;;5001108;28;20065;-90
2022/08/12 14:41:17;;;;;;;3.70;1.10;;;34.70;40.70;;;;;;5001205;28;20054;-90
2022/08/12 14:43:47;;;;;;;3.45;1.63;;;34.10;41.10;;;;;;5000877;28;20019;-90
2022/08/12 14:46:20;;;;;;;3.22;1.20;;;33.90;41.80;;;;;;5017282;28;20090;-89
2022/08/12 14:48:49;;;;;;;6.40;1.30;;;34.70;41.40;;;;;;5001092;28;20057;-90
2022/08/12 14:51:18;;;;;;;2.22;1.40;;;35.70;40.80;;;;;;5001760;28;20042;-93
2022/08/12 14:53:45;;;;;;;2.78;1.10;;;36.30;40.50;;;;;;5001936;28;20094;-91
2022/08/12 14:56:14;;;;;;;2.75;1.02;;;37.70;39.80;;;;;;5002242;28;20041;-92
2022/08/12 15:01:44;;;;;;;1.55;1.08;;;40.00;37.90;;;;;;5018632;28;20091;-91